Time;durP1;ratioP1;P1;durP2;ratioP2;P2;SDS_P1;SDS_P2;PMS_P1;PMS_P2;Temp;Humidity;BMP_temperature;BMP_pressure;BME280_temperature;BME280_humidity;BME280_pressure;Samples;Min_cycle;Max_cycle;Signal;HPM_P1;HPM_P2
2022/08/22 00:01:52;;;;;;;10.02;3.78;;;;;;;21.12;61.16;101736.78;6198417;22;20011;-54
2022/08/22 00:04:25;;;;;;;11.07;3.80;;;;;;;21.10;61.65;101738.59;6235824;22;20445;-54
2022/08/22 00:07:09;;;;;;;7.03;3.45;;;;;;;21.22;60.91;101742.84;6199653;22;20139;-54
2022/08/22 00:10:16;;;;;;;11.25;3.67;;;;;;;21.06;61.48;101736.88;6205865;22;20007;-53
2022/08/22 00:12:57;;;;;;;7.50;3.58;;;;;;;21.13;60.72;101735.88;6233776;22;20007;-54
2022/08/22 00:15:22;;;;;;;9.38;3.53;;;;;;;21.20;60.68;101734.03;6192008;22;20026;-54
2022/08/22 00:18:03;;;;;;;10.90;3.50;;;;;;;21.27;60.84;101733.91;6204180;22;20095;-54
2022/08/22 00:20:37;;;;;;;8.50;3.75;;;;;;;21.21;59.78;101731.38;6218928;22;20019;-56
2022/08/22 00:23:25;;;;;;;12.05;4.13;;;;;;;21.26;59.56;101736.59;6225594;22;20502;-52
2022/08/22 00:26:02;;;;;;;9.80;3.88;;;;;;;21.28;59.96;101740.09;6136176;22;20015;-55
2022/08/22 00:28:38;;;;;;;10.32;3.90;;;;;;;21.31;59.14;101737.38;6190172;22;20015;-55
2022/08/22 00:31:35;;;;;;;9.07;3.67;;;;;;;21.44;58.87;101739.78;6227774;22;20487;-53
2022/08/22 00:34:22;;;;;;;8.88;3.45;;;;;;;21.41;58.66;101736.31;6226201;22;20018;-54
2022/08/22 00:37:06;;;;;;;7.80;3.40;;;;;;;21.52;58.07;101731.69;6201962;22;20403;-54
2022/08/22 00:39:41;;;;;;;10.00;3.65;;;;;;;21.60;58.45;101742.16;6233574;22;20420;-53
2022/08/22 00:42:43;;;;;;;8.90;3.60;;;;;;;21.60;58.70;101740.38;6233580;22;20019;-53
2022/08/22 00:45:42;;;;;;;13.75;3.80;;;;;;;21.45;59.77;101738.91;6218549;22;20033;-55
2022/08/22 00:48:26;;;;;;;12.02;3.92;;;;;;;21.36;59.95;101740.81;6226618;22;20011;-54
2022/08/22 00:51:22;;;;;;;10.02;3.92;;;;;;;21.35;58.93;101733.75;6206736;22;20031;-54
2022/08/22 00:54:10;;;;;;;10.60;3.80;;;;;;;21.48;59.14;101735.28;6232122;22;20061;-55
2022/08/22 00:57:18;;;;;;;12.75;3.92;;;;;;;21.50;59.18;101727.31;6229530;22;20039;-54
2022/08/22 00:59:52;;;;;;;8.55;3.72;;;;;;;21.51;58.53;101737.91;6224893;22;20101;-53
2022/08/22 01:03:10;;;;;;;10.68;4.00;;;;;;;21.53;58.38;101732.59;6211314;22;20019;-54
2022/08/22 01:06:12;;;;;;;7.35;3.42;;;;;;;21.58;58.36;101733.38;6210533;22;20043;-54
2022/08/22 01:08:57;;;;;;;9.48;3.75;;;;;;;21.56;58.70;101733.38;6202147;22;21033;-53
2022/08/22 01:11:54;;;;;;;9.90;4.10;;;;;;;21.52;58.41;101737.00;6223040;22;20037;-53
2022/08/22 01:14:19;;;;;;;9.32;3.65;;;;;;;21.51;58.71;101727.28;6196535;22;20011;-55
2022/08/22 01:16:59;;;;;;;12.30;4.35;;;;;;;21.50;58.50;101729.97;6197742;22;20038;-53
2022/08/22 01:19:33;;;;;;;8.40;4.05;;;;;;;21.41;59.06;101728.34;6238956;22;20359;-54
2022/08/22 01:22:20;;;;;;;9.07;3.88;;;;;;;21.38;59.40;101733.72;6227698;22;20018;-51
2022/08/22 01:28:11;;;;;;;12.27;5.20;;;;;;;21.32;60.24;101737.34;6228632;22;20066;-54
2022/08/22 01:31:24;;;;;;;13.13;5.38;;;;;;;21.20;60.29;101742.00;6221626;22;20747;-53
2022/08/22 01:34:17;;;;;;;11.30;5.22;;;;;;;21.12;60.77;101744.72;6134971;22;20015;-53
2022/08/22 01:37:20;;;;;;;10.18;4.97;;;;;;;21.04;61.21;101750.13;6190360;22;20015;-53
2022/08/22 01:39:49;;;;;;;10.40;4.93;;;;;;;21.05;61.05;101743.94;6204394;22;20008;-54
2022/08/22 01:42:26;;;;;;;11.93;5.43;;;;;;;21.05;61.22;101746.59;6225185;22;20020;-53
2022/08/22 01:45:02;;;;;;;9.85;5.07;;;;;;;20.97;61.63;101750.28;6198997;22;20505;-54
2022/08/22 01:47:47;;;;;;;11.35;4.70;;;;;;;20.91;62.23;101748.59;6197183;22;20015;-54
2022/08/22 01:50:56;;;;;;;11.00;5.07;;;;;;;20.91;62.51;101758.34;6235025;22;20700;-54
2022/08/22 01:53:55;;;;;;;13.18;5.63;;;;;;;20.92;61.64;101760.09;6169523;22;20022;-55
2022/08/22 01:56:24;;;;;;;12.43;5.30;;;;;;;20.90;61.97;101756.56;6225130;22;20026;-54
2022/08/22 01:58:58;;;;;;;11.65;5.18;;;;;;;20.83;62.14;101750.50;6220185;22;20498;-54
2022/08/22 02:01:33;;;;;;;12.52;5.18;;;;;;;20.81;62.47;101744.31;6230651;22;20842;-53
2022/08/22 02:04:17;;;;;;;9.60;4.93;;;;;;;20.88;62.13;101745.09;6193378;22;20049;-53
2022/08/22 02:07:20;;;;;;;10.60;4.70;;;;;;;20.80;62.18;101747.88;6198672;22;20039;-55
2022/08/22 02:10:13;;;;;;;11.82;4.68;;;;;;;20.86;61.84;101750.44;6226395;22;20023;-53
2022/08/22 02:12:53;;;;;;;9.18;4.72;;;;;;;20.81;62.26;101744.31;6230889;22;20008;-53
2022/08/22 02:15:39;;;;;;;8.13;4.40;;;;;;;20.95;62.01;101738.81;6194485;22;20035;-54
2022/08/22 02:18:04;;;;;;;11.60;4.65;;;;;;;20.97;61.97;101739.69;6233368;22;20489;-55
2022/08/22 02:20:42;;;;;;;9.70;4.88;;;;;;;20.98;61.49;101736.97;6221132;22;20466;-53
2022/08/22 02:23:34;;;;;;;14.40;5.10;;;;;;;20.85;61.78;101746.06;6192249;22;20094;-54
2022/08/22 02:26:00;;;;;;;11.32;5.07;;;;;;;20.74;62.05;101733.88;6225995;22;20015;-54
2022/08/22 02:29:03;;;;;;;11.18;5.10;;;;;;;20.72;62.42;101731.22;6203919;22;20721;-54
2022/08/22 02:31:38;;;;;;;12.27;5.10;;;;;;;20.67;62.83;101722.47;6173938;22;20019;-54
2022/08/22 02:34:28;;;;;;;10.43;4.90;;;;;;;20.54;62.83;101724.44;6234432;22;20035;-55
2022/08/22 02:37:20;;;;;;;13.95;5.10;;;;;;;20.55;62.96;101727.94;6195221;22;20380;-54
2022/08/22 02:40:11;;;;;;;9.57;4.60;;;;;;;20.72;62.02;101731.22;6206047;22;20004;-54
2022/08/22 02:42:42;;;;;;;10.85;4.85;;;;;;;20.76;61.81;101726.75;6232270;22;20015;-53
2022/08/22 02:45:23;;;;;;;10.88;4.70;;;;;;;20.80;61.53;101733.78;6191853;22;20043;-53
2022/08/22 02:48:11;;;;;;;11.70;4.53;;;;;;;20.68;62.42;101724.19;6195357;22;20439;-55
2022/08/22 02:50:45;;;;;;;8.75;4.10;;;;;;;20.81;62.09;101733.72;6225322;22;20016;-54
2022/08/22 02:53:19;;;;;;;10.38;4.32;;;;;;;20.84;61.89;101727.50;6217796;22;20011;-55
2022/08/22 02:56:06;;;;;;;;;;;;;;;20.86;62.08;101729.22;6227050;22;20023;-54
2022/08/22 02:58:50;;;;;;;11.07;4.28;;;;;;;20.90;61.29;101722.13;6232836;22;19958;-55
2022/08/22 03:01:36;;;;;;;10.57;4.57;;;;;;;20.78;62.22;101725.84;6184942;22;20019;-55
2022/08/22 03:04:24;;;;;;;9.68;4.30;;;;;;;20.76;62.08;101717.03;6236644;22;20384;-54
2022/08/22 03:07:10;;;;;;;10.15;4.40;;;;;;;20.75;61.93;101714.38;6206488;22;20066;-57
2022/08/22 03:09:46;;;;;;;8.57;4.43;;;;;;;20.68;62.19;101710.94;6218377;22;20035;-54
2022/08/22 03:12:50;;;;;;;12.50;4.63;;;;;;;20.47;63.08;101711.28;6194524;22;20107;-55
2022/08/22 03:15:25;;;;;;;9.88;4.15;;;;;;;20.44;62.92;101703.34;6190815;22;20098;-55
2022/08/22 03:18:23;;;;;;;9.55;4.00;;;;;;;20.34;62.83;101704.41;6221305;22;20118;-53
2022/08/22 03:21:08;;;;;;;12.05;4.10;;;;;;;20.19;63.52;101701.00;6218064;22;20039;-54
2022/08/22 03:24:06;;;;;;;9.88;4.10;;;;;;;20.35;62.99;101691.16;6229273;22;20012;-55
2022/08/22 03:27:00;;;;;;;11.75;4.32;;;;;;;20.27;63.19;101683.25;6167237;22;20106;-53
2022/08/22 03:29:32;;;;;;;10.45;3.83;;;;;;;20.33;63.13;101681.44;6200051;22;20004;-53
2022/08/22 03:32:06;;;;;;;8.82;4.07;;;;;;;20.13;63.74;101677.25;6230346;22;20012;-54
2022/08/22 03:34:32;;;;;;;10.18;4.03;;;;;;;20.15;63.73;101677.25;6228752;22;20406;-52
2022/08/22 03:37:01;;;;;;;9.82;3.90;;;;;;;20.32;63.35;101675.28;6222955;22;20480;-54
2022/08/22 03:39:58;;;;;;;10.52;4.10;;;;;;;19.81;64.44;101674.16;6206239;22;20011;-54
2022/08/22 03:42:48;;;;;;;6.55;3.78;;;;;;;20.25;63.22;101678.88;6222344;22;20026;-54
2022/08/22 03:45:51;;;;;;;11.15;3.90;;;;;;;19.99;64.11;101678.34;6217309;22;20027;-57
2022/08/22 03:48:48;;;;;;;8.73;3.72;;;;;;;19.93;64.42;101679.31;6199745;22;21009;-54
2022/08/22 03:52:16;;;;;;;11.10;3.67;;;;;;;19.98;64.16;101681.91;6221872;22;20372;-54
2022/08/22 03:55:25;;;;;;;8.05;3.50;;;;;;;19.99;63.96;101673.94;6232939;22;20019;-53
2022/08/22 03:58:29;;;;;;;9.70;3.45;;;;;;;19.87;64.42;101676.75;6231844;22;20293;-53
2022/08/22 04:01:32;;;;;;;9.23;3.60;;;;;;;19.77;64.57;101685.66;6230065;22;20004;-54
2022/08/22 04:04:10;;;;;;;10.93;3.58;;;;;;;19.87;64.04;101683.81;6237341;22;20086;-55
2022/08/22 04:07:31;;;;;;;9.27;3.72;;;;;;;19.73;64.41;101690.13;6201825;22;20516;-54
2022/08/22 04:10:24;;;;;;;10.55;3.50;;;;;;;19.90;63.96;101692.56;6227562;22;20011;-53
2022/08/22 04:13:37;;;;;;;10.20;3.33;;;;;;;19.87;63.67;101689.97;6233084;22;20116;-55
2022/08/22 04:16:22;;;;;;;8.65;3.42;;;;;;;19.74;63.93;101701.59;6200991;22;20069;-53
2022/08/22 04:19:20;;;;;;;11.77;3.78;;;;;;;19.75;64.16;101692.75;6201376;22;20160;-55
2022/08/22 04:21:46;;;;;;;12.43;3.85;;;;;;;19.65;64.54;101699.91;6205044;22;20042;-53
2022/08/22 04:24:14;;;;;;;10.43;3.50;;;;;;;19.75;64.20;101701.56;6229462;22;20012;-54
2022/08/22 04:26:43;;;;;;;8.55;3.50;;;;;;;19.94;63.52;101704.88;6192432;22;20015;-55
2022/08/22 04:29:18;;;;;;;8.85;3.30;;;;;;;19.88;63.74;101704.97;6223751;22;20012;-53
2022/08/22 04:32:08;;;;;;;8.70;3.42;;;;;;;19.88;63.47;101699.66;6219866;22;20015;-54
2022/08/22 04:34:43;;;;;;;9.48;3.60;;;;;;;19.98;63.16;101706.59;6222783;22;20094;-53
2022/08/22 04:37:24;;;;;;;8.40;3.58;;;;;;;19.94;63.49;101718.13;6221035;22;20016;-53
2022/08/22 04:39:58;;;;;;;10.80;3.40;;;;;;;19.88;63.52;101710.25;6231625;22;20003;-52
2022/08/22 04:42:44;;;;;;;8.60;3.30;;;;;;;19.91;63.88;101709.31;6200754;22;20182;-53
2022/08/22 04:45:21;;;;;;;10.55;3.55;;;;;;;20.08;63.22;101708.22;6216047;22;20609;-54
2022/08/22 04:48:14;;;;;;;10.10;3.20;;;;;;;20.09;63.35;101706.44;6227241;22;20019;-55
2022/08/22 04:50:47;;;;;;;8.13;3.20;;;;;;;20.14;63.02;101709.91;6222137;22;20011;-56
2022/08/22 04:53:25;;;;;;;8.40;3.40;;;;;;;20.06;63.11;101719.75;6198182;22;20003;-56
2022/08/22 04:56:06;;;;;;;12.20;3.40;;;;;;;20.10;62.93;101716.16;6224287;22;20024;-50
2022/08/22 04:58:40;;;;;;;9.30;3.30;;;;;;;20.14;62.97;101721.38;6227349;22;20038;-55
2022/08/22 05:01:06;;;;;;;7.00;3.50;;;;;;;19.98;63.31;101726.88;6219321;22;20012;-54
2022/08/22 05:03:36;;;;;;;6.97;3.42;;;;;;;19.88;64.19;101726.13;6203772;22;20098;-54
2022/08/22 05:06:04;;;;;;;8.40;3.30;;;;;;;19.79;64.40;101727.09;6223295;22;20000;-55
2022/08/22 05:08:33;;;;;;;7.97;3.60;;;;;;;19.91;63.95;101731.38;6233062;22;20026;-54
2022/08/22 05:11:02;;;;;;;8.35;3.47;;;;;;;19.86;63.94;101727.91;6230496;22;20089;-53
2022/08/22 05:13:33;;;;;;;11.38;3.65;;;;;;;19.81;64.13;101733.25;6197773;22;20018;-55
2022/08/22 05:16:03;;;;;;;10.65;3.60;;;;;;;19.74;64.53;101733.34;6203036;22;20020;-56
2022/08/22 05:18:33;;;;;;;8.85;3.50;;;;;;;19.72;64.73;101735.13;6227155;22;20629;-54
2022/08/22 05:21:02;;;;;;;10.05;3.70;;;;;;;19.59;64.96;101733.47;6217573;22;20102;-54
2022/08/22 05:23:38;;;;;;;9.48;3.88;;;;;;;19.80;64.70;101739.44;6227073;22;20011;-53
2022/08/22 05:26:06;;;;;;;8.65;3.40;;;;;;;19.84;64.55;101734.97;6221571;22;20636;-55
2022/08/22 05:28:36;;;;;;;10.65;4.03;;;;;;;19.80;64.39;101739.44;6229512;22;20010;-54
2022/08/22 05:31:08;;;;;;;8.52;3.70;;;;;;;19.85;64.53;101737.63;6222318;22;20085;-53
2022/08/22 05:33:42;;;;;;;9.10;3.38;;;;;;;19.95;64.23;101738.38;6227390;22;20091;-53
2022/08/22 05:36:29;;;;;;;10.00;3.50;;;;;;;19.99;63.81;101740.13;6229627;22;20008;-53
2022/08/22 05:39:00;;;;;;;8.23;3.45;;;;;;;19.96;64.05;101742.78;6191500;22;20048;-55
2022/08/22 05:41:31;;;;;;;8.38;3.53;;;;;;;19.96;64.25;101740.13;6201468;22;20011;-53
2022/08/22 05:43:58;;;;;;;9.27;3.70;;;;;;;19.96;64.31;101744.53;6220619;22;20148;-55
2022/08/22 05:46:45;;;;;;;8.52;3.53;;;;;;;20.07;64.01;101743.53;6226466;22;20463;-55
2022/08/22 05:49:18;;;;;;;8.43;3.53;;;;;;;20.14;63.66;101733.75;6220255;22;20010;-55
2022/08/22 05:52:02;;;;;;;9.40;3.50;;;;;;;20.24;63.19;101741.56;6198967;22;20309;-54
2022/08/22 05:54:32;;;;;;;9.45;3.83;;;;;;;20.16;63.69;101738.13;6235688;22;20016;-56
2022/08/22 05:57:12;;;;;;;10.93;3.72;;;;;;;20.22;63.89;101738.06;6210806;22;20043;-54
2022/08/22 05:59:41;;;;;;;9.18;3.70;;;;;;;20.37;63.87;101744.94;6200483;22;20057;-54
2022/08/22 06:02:16;;;;;;;13.40;3.97;;;;;;;20.60;62.58;101747.31;6221755;22;20023;-54
2022/08/22 06:04:49;;;;;;;12.52;4.30;;;;;;;20.50;63.05;101745.66;6222411;22;20004;-53
2022/08/22 06:07:38;;;;;;;13.80;4.15;;;;;;;20.63;62.62;101741.94;6219568;22;20070;-55
2022/08/22 06:10:17;;;;;;;7.40;3.60;;;;;;;21.24;61.08;101743.69;6230218;22;20393;-54
2022/08/22 06:13:33;;;;;;;11.68;4.47;;;;;;;21.35;60.84;101747.91;6234521;22;20373;-53
2022/08/22 06:16:15;;;;;;;14.93;4.40;;;;;;;21.60;59.43;101750.13;6170668;22;20757;-52
2022/08/22 06:18:43;;;;;;;10.57;4.10;;;;;;;21.97;59.21;101750.31;6227665;22;20065;-53
2022/08/22 06:21:16;;;;;;;8.10;4.00;;;;;;;22.00;58.35;101756.47;6208008;22;20102;-53
2022/08/22 06:23:49;;;;;;;8.87;4.40;;;;;;;21.92;57.53;101749.50;6228841;22;20016;-52
2022/08/22 06:26:17;;;;;;;10.15;4.60;;;;;;;21.70;58.83;101757.03;6191975;22;20019;-54
2022/08/22 06:28:46;;;;;;;8.68;4.10;;;;;;;22.10;58.44;101755.38;6227912;22;20435;-58
2022/08/22 06:31:30;;;;;;;8.13;4.00;;;;;;;22.13;58.41;101752.66;6196596;22;20346;-52
2022/08/22 06:34:36;;;;;;;10.40;4.70;;;;;;;21.60;59.09;101755.41;6223441;22;20004;-51
2022/08/22 06:37:30;;;;;;;11.90;4.90;;;;;;;22.00;58.62;101758.25;6216424;22;20455;-56
2022/08/22 06:40:11;;;;;;;13.73;4.70;;;;;;;21.84;58.82;101754.97;6231040;22;20008;-54
2022/08/22 06:42:41;;;;;;;10.27;4.55;;;;;;;22.06;58.49;101760.78;6222301;22;20047;-55
2022/08/22 06:45:27;;;;;;;13.40;5.07;;;;;;;21.81;58.45;101757.69;6211750;22;20050;-55
2022/08/22 06:48:12;;;;;;;11.02;4.70;;;;;;;22.23;58.93;101756.00;6203452;22;20007;-56
2022/08/22 06:50:41;;;;;;;11.85;5.00;;;;;;;22.80;56.09;101750.34;6216589;22;20020;-54
2022/08/22 06:53:43;;;;;;;8.63;4.50;;;;;;;22.99;55.69;101755.19;6134399;22;20038;-66
2022/08/22 06:56:10;;;;;;;10.88;4.85;;;;;;;23.16;55.67;101748.59;6127142;22;20019;-67
2022/08/22 06:58:44;;;;;;;12.45;4.90;;;;;;;23.45;54.09;101751.38;6214835;22;20024;-69
2022/08/22 07:01:15;;;;;;;10.75;4.80;;;;;;;23.60;53.68;101739.50;6186383;22;20008;-68
2022/08/22 07:03:58;;;;;;;11.63;5.00;;;;;;;24.30;51.87;101733.06;6229271;22;20015;-69
2022/08/22 07:06:37;;;;;;;11.30;4.60;;;;;;;25.04;49.92;101722.75;6213887;22;20423;-69
2022/08/22 07:09:04;;;;;;;11.65;4.40;;;;;;;25.57;48.72;101713.84;6218281;22;20043;-69
2022/08/22 07:11:42;;;;;;;11.98;4.55;;;;;;;25.08;49.94;101717.31;6230995;22;20004;-69
2022/08/22 07:14:10;;;;;;;9.60;4.55;;;;;;;25.68;49.13;101709.88;6221787;22;20077;-69
2022/08/22 07:16:42;;;;;;;8.85;4.45;;;;;;;25.49;48.81;101710.56;6190821;22;20022;-68
2022/08/22 07:19:20;;;;;;;9.23;3.80;;;;;;;26.88;45.48;101705.28;6198638;22;20338;-68
2022/08/22 07:21:48;;;;;;;11.70;4.45;;;;;;;26.98;45.32;101709.31;6224298;22;20023;-69
2022/08/22 07:24:18;;;;;;;10.75;4.57;;;;;;;25.92;47.37;101701.91;6225546;22;20003;-69
2022/08/22 07:27:00;;;;;;;12.88;4.72;;;;;;;25.07;50.13;101702.25;6200281;22;20452;-68
2022/08/22 07:29:34;;;;;;;13.65;4.43;;;;;;;26.12;48.35;101710.91;6214240;22;20472;-67
2022/08/22 07:32:18;;;;;;;12.32;4.88;;;;;;;25.56;48.68;101699.59;6228531;22;20011;-67
2022/08/22 07:35:12;;;;;;;10.95;4.72;;;;;;;25.87;48.90;101710.06;6219768;22;20098;-67
2022/08/22 07:37:55;;;;;;;10.23;4.50;;;;;;;26.88;45.85;101707.97;6223888;22;20601;-67
2022/08/22 07:40:52;;;;;;;11.35;4.53;;;;;;;26.97;45.53;101714.72;6222215;22;20078;-68
2022/08/22 07:43:28;;;;;;;12.35;4.90;;;;;;;25.75;48.08;101714.06;6228356;22;20512;-68
2022/08/22 07:46:02;;;;;;;12.85;5.28;;;;;;;26.14;47.51;101709.06;6217956;22;20223;-69
2022/08/22 07:48:42;;;;;;;12.77;4.68;;;;;;;25.43;48.81;101706.31;6235478;22;20011;-67
2022/08/22 07:51:14;;;;;;;10.00;4.28;;;;;;;27.05;46.87;101708.13;6216504;22;20015;-68
2022/08/22 07:53:43;;;;;;;14.27;4.80;;;;;;;27.14;45.73;101717.56;6221824;22;20051;-69
2022/08/22 07:56:17;;;;;;;11.52;4.70;;;;;;;27.33;45.20;101713.16;6204330;22;20016;-67
2022/08/22 07:58:46;;;;;;;9.30;4.13;;;;;;;27.84;44.40;101711.84;6231473;22;20019;-67
2022/08/22 08:01:16;;;;;;;9.25;4.28;;;;;;;28.35;43.13;101713.09;6213964;22;20011;-68
2022/08/22 08:03:47;;;;;;;10.80;4.50;;;;;;;28.82;41.63;101710.81;6205631;22;20114;-67
2022/08/22 08:06:12;;;;;;;12.45;4.78;;;;;;;27.45;44.17;101707.28;6196399;22;20050;-67
2022/08/22 08:08:41;;;;;;;10.63;4.60;;;;;;;26.53;47.48;101708.47;6227017;22;20008;-68
2022/08/22 08:11:11;;;;;;;10.05;4.80;;;;;;;26.39;48.00;101703.66;6218149;22;20838;-68
2022/08/22 08:13:41;;;;;;;10.90;5.10;;;;;;;26.01;47.50;101714.91;6198930;22;20078;-67
2022/08/22 08:16:16;;;;;;;20.88;5.15;;;;;;;26.17;48.32;101708.91;6229620;22;20739;-68
2022/08/22 08:18:47;;;;;;;11.90;5.05;;;;;;;25.45;49.91;101707.13;6224653;22;20050;-67
2022/08/22 08:21:26;;;;;;;13.70;4.80;;;;;;;25.72;48.82;101706.19;6198003;22;20437;-67
2022/08/22 08:24:01;;;;;;;18.02;5.15;;;;;;;25.82;49.75;101704.03;6201802;22;20027;-69
2022/08/22 08:26:34;;;;;;;13.70;4.72;;;;;;;25.47;48.65;101702.59;6204499;22;20070;-67
2022/08/22 08:29:02;;;;;;;10.40;4.20;;;;;;;25.93;49.69;101699.16;6214487;22;20446;-69
2022/08/22 08:31:37;;;;;;;10.15;4.70;;;;;;;26.47;47.41;101701.53;6237185;22;20960;-68
2022/08/22 08:34:14;;;;;;;13.07;4.55;;;;;;;25.99;48.39;101700.72;6220704;22;20010;-67
2022/08/22 08:36:54;;;;;;;11.38;4.68;;;;;;;26.02;46.92;101704.16;6225539;22;20023;-69
2022/08/22 08:39:31;;;;;;;13.05;4.45;;;;;;;26.41;47.27;101695.59;6198919;22;20015;-68
2022/08/22 08:41:57;;;;;;;10.57;3.88;;;;;;;26.38;46.09;101693.91;6191166;22;20461;-67
2022/08/22 08:45:01;;;;;;;11.07;4.03;;;;;;;26.29;46.89;101693.41;6199161;22;20012;-67
2022/08/22 08:47:39;;;;;;;9.82;3.45;;;;;;;26.56;45.23;101687.81;6224294;22;20023;-68
2022/08/22 08:50:28;;;;;;;10.18;4.57;;;;;;;25.47;47.64;101686.59;6229565;22;20015;-68
2022/08/22 08:53:33;;;;;;;8.45;4.05;;;;;;;26.01;45.29;101682.84;6227953;22;20034;-66
2022/08/22 08:56:14;;;;;;;9.82;4.15;;;;;;;25.78;45.88;101689.94;6232164;22;20012;-68
2022/08/22 08:58:59;;;;;;;14.20;4.28;;;;;;;25.79;45.84;101686.34;6203642;22;20389;-67
2022/08/22 09:01:55;;;;;;;10.52;4.35;;;;;;;25.89;47.14;101684.19;6221892;22;20027;-71
2022/08/22 09:04:58;;;;;;;11.73;3.53;;;;;;;25.92;46.04;101688.56;6230444;22;20856;-68
2022/08/22 09:07:56;;;;;;;9.07;3.67;;;;;;;25.61;45.10;101688.81;6196289;22;20015;-67
2022/08/22 09:10:49;;;;;;;10.57;3.78;;;;;;;25.56;44.35;101688.91;6206966;22;20004;-68
2022/08/22 09:13:28;;;;;;;8.60;3.45;;;;;;;25.86;44.09;101689.63;6208732;22;20042;-69
2022/08/22 09:16:10;;;;;;;10.60;3.55;;;;;;;25.89;44.41;101681.50;6217582;22;20019;-69
2022/08/22 09:18:59;;;;;;;11.82;4.30;;;;;;;25.91;45.02;101679.66;6230760;22;20011;-67
2022/08/22 09:22:06;;;;;;;11.35;3.65;;;;;;;25.91;44.18;101686.81;6224135;22;20007;-68
2022/08/22 09:24:51;;;;;;;11.98;4.20;;;;;;;25.55;44.98;101687.19;6225380;22;20018;-68
2022/08/22 09:27:31;;;;;;;11.82;4.35;;;;;;;25.85;44.79;101683.44;6214865;22;20500;-69
2022/08/22 09:30:11;;;;;;;10.38;4.18;;;;;;;25.83;44.64;101673.72;6234447;22;20764;-69
2022/08/22 09:33:01;;;;;;;12.15;3.45;;;;;;;26.61;43.43;101671.56;6214195;22;20011;-69
2022/08/22 09:35:38;;;;;;;9.85;3.38;;;;;;;26.49;42.67;101672.94;6222367;22;20058;-68
2022/08/22 09:38:25;;;;;;;9.73;3.38;;;;;;;26.70;42.06;101676.56;6194240;22;20666;-68
2022/08/22 09:41:10;;;;;;;14.07;3.70;;;;;;;26.71;41.99;101662.25;6224107;22;20339;-67
2022/08/22 09:43:57;;;;;;;9.70;3.60;;;;;;;26.64;42.03;101655.41;6190711;22;20020;-67
2022/08/22 09:46:32;;;;;;;7.18;2.97;;;;;;;26.67;42.62;101660.63;6197357;22;20019;-67
2022/08/22 09:49:18;;;;;;;9.77;3.42;;;;;;;26.68;41.74;101651.69;6218816;22;20400;-67
2022/08/22 09:51:57;;;;;;;13.40;3.38;;;;;;;26.44;41.73;101661.56;6224822;22;20008;-67
2022/08/22 09:54:37;;;;;;;10.30;3.42;;;;;;;27.06;40.80;101652.78;6179306;23;20016;-67
2022/08/22 09:57:08;;;;;;;9.13;3.72;;;;;;;26.98;41.13;101653.09;6181385;23;20277;-67
2022/08/22 10:00:00;;;;;;;11.50;3.25;;;;;;;27.04;41.95;101652.84;6174790;23;20016;-68
2022/08/22 10:02:33;;;;;;;11.32;4.35;;;;;;;26.49;41.53;101651.56;6158461;23;20024;-67
2022/08/22 10:05:29;;;;;;;7.80;3.25;;;;;;;27.29;43.12;101647.31;6189856;23;20260;-68
2022/08/22 10:08:40;;;;;;;13.00;3.53;;;;;;;26.95;40.28;101645.22;6193866;23;20012;-68
2022/08/22 10:11:17;;;;;;;9.77;3.30;;;;;;;27.48;40.26;101636.66;6135373;23;20046;-69
2022/08/22 10:13:54;;;;;;;8.40;3.38;;;;;;;26.97;40.06;101634.44;6189891;23;20016;-68
2022/08/22 10:16:25;;;;;;;8.65;3.47;;;;;;;26.37;41.41;101644.03;6197894;23;20133;-68
2022/08/22 10:19:16;;;;;;;8.15;3.70;;;;;;;26.55;42.05;101647.75;6191761;23;20038;-68
2022/08/22 10:22:19;;;;;;;11.88;3.53;;;;;;;27.18;39.52;101644.22;6198727;23;20008;-68
2022/08/22 10:24:57;;;;;;;8.02;3.65;;;;;;;27.15;40.15;101644.34;6198772;23;20016;-68
2022/08/22 10:27:53;;;;;;;9.90;3.13;;;;;;;27.74;39.07;101635.50;6174942;23;20099;-67
2022/08/22 10:30:28;;;;;;;8.95;2.80;;;;;;;28.54;37.70;101637.03;6196884;23;20011;-68
2022/08/22 10:33:05;;;;;;;14.57;3.80;;;;;;;27.54;38.18;101633.72;6192222;22;20023;-68
2022/08/22 10:35:42;;;;;;;9.23;2.97;;;;;;;28.32;37.38;101633.66;6170484;23;20089;-68
2022/08/22 10:38:17;;;;;;;8.57;2.90;;;;;;;29.08;36.97;101629.84;6195803;23;20354;-68
2022/08/22 10:41:03;;;;;;;11.02;2.90;;;;;;;28.40;38.30;101635.97;6188256;23;20008;-68
2022/08/22 10:43:38;;;;;;;8.98;2.70;;;;;;;28.83;37.54;101637.41;6189107;23;20030;-71
2022/08/22 10:46:13;;;;;;;6.38;2.33;;;;;;;29.84;34.41;101634.72;6196406;23;20008;-68
2022/08/22 10:48:46;;;;;;;10.07;2.65;;;;;;;30.29;33.38;101633.13;6195343;23;20049;-69
2022/08/22 10:51:25;;;;;;;8.40;2.47;;;;;;;30.41;35.27;101643.19;6158314;23;20575;-69
2022/08/22 10:54:01;;;;;;;9.55;2.63;;;;;;;30.23;33.89;101645.09;6209007;22;20022;-69
2022/08/22 10:56:33;;;;;;;9.27;2.60;;;;;;;30.29;33.73;101653.78;6215511;22;20086;-69
2022/08/22 10:59:31;;;;;;;6.90;2.50;;;;;;;30.71;31.56;101647.78;6194176;22;20683;-69
2022/08/22 11:02:18;;;;;;;8.13;2.20;;;;;;;30.84;32.87;101644.28;6225574;22;20258;-70
2022/08/22 11:04:43;;;;;;;8.05;2.60;;;;;;;30.08;33.12;101642.41;6199220;22;20449;-68
2022/08/22 11:07:27;;;;;;;10.05;2.80;;;;;;;29.43;34.77;101645.00;6213755;22;20007;-67
2022/08/22 11:10:02;;;;;;;9.07;2.95;;;;;;;29.09;34.71;101631.59;6230505;22;20008;-67
2022/08/22 11:12:45;;;;;;;9.80;2.50;;;;;;;28.94;35.62;101635.91;6227230;22;20003;-67
2022/08/22 11:15:17;;;;;;;6.25;2.45;;;;;;;29.29;35.05;101638.59;6219942;22;20253;-69
2022/08/22 11:18:07;;;;;;;8.73;2.88;;;;;;;28.99;34.78;101635.69;6225493;22;20012;-67
2022/08/22 11:21:02;;;;;;;6.53;2.10;;;;;;;29.71;33.38;101630.06;6225022;22;20342;-67
2022/08/22 11:23:56;;;;;;;8.02;2.63;;;;;;;28.61;34.70;101635.75;6223452;22;20341;-68
2022/08/22 11:26:25;;;;;;;10.55;2.63;;;;;;;29.32;34.86;101639.31;6216939;22;20049;-67
2022/08/22 11:29:15;;;;;;;7.20;2.80;;;;;;;28.06;36.42;101631.28;6197673;22;20036;-67
2022/08/22 11:31:43;;;;;;;12.77;2.92;;;;;;;28.21;37.80;101626.13;6217510;22;20023;-69
2022/08/22 11:35:04;;;;;;;8.60;2.72;;;;;;;28.54;36.39;101628.13;6202714;22;20037;-68
2022/08/22 11:37:54;;;;;;;7.45;2.53;;;;;;;29.52;34.81;101619.44;6175949;22;20019;-67
2022/08/22 11:40:46;;;;;;;10.68;3.20;;;;;;;29.10;34.62;101614.50;6230656;22;20095;-67
2022/08/22 11:43:21;;;;;;;9.50;2.60;;;;;;;29.34;34.85;101613.25;6187934;22;20341;-69
2022/08/22 11:45:51;;;;;;;7.50;2.80;;;;;;;29.03;35.87;101618.47;6200005;22;20050;-67
2022/08/22 11:48:54;;;;;;;7.00;2.90;;;;;;;28.52;35.23;101633.53;6227367;22;20020;-71
2022/08/22 11:51:47;;;;;;;10.77;3.13;;;;;;;29.11;35.80;101616.25;6152666;22;20016;-68
2022/08/22 11:54:58;;;;;;;7.93;2.70;;;;;;;28.88;34.34;101620.13;6233282;22;20027;-68
2022/08/22 11:57:39;;;;;;;10.98;2.72;;;;;;;30.15;33.44;101604.31;6174473;22;20518;-68
2022/08/22 12:00:23;;;;;;;9.13;3.20;;;;;;;28.62;36.47;101617.84;6233006;22;20003;-69
2022/08/22 12:03:19;;;;;;;9.70;3.00;;;;;;;28.67;36.49;101612.28;6215001;22;20012;-67
2022/08/22 12:05:48;;;;;;;9.05;2.97;;;;;;;28.46;36.21;101615.06;6230872;22;20730;-67
2022/08/22 12:08:49;;;;;;;11.05;3.00;;;;;;;29.27;34.83;101616.34;6229501;22;20082;-67
2022/08/22 12:11:14;;;;;;;8.98;2.65;;;;;;;28.93;36.15;101625.25;6221162;22;20485;-67
2022/08/22 12:14:04;;;;;;;9.45;2.85;;;;;;;28.73;34.96;101615.50;6228403;22;20026;-68
2022/08/22 12:17:04;;;;;;;7.40;2.65;;;;;;;28.73;34.67;101614.66;6227721;22;20003;-68
2022/08/22 12:20:07;;;;;;;9.40;2.80;;;;;;;28.92;34.27;101610.09;6199225;22;20054;-67
2022/08/22 12:22:41;;;;;;;7.45;2.63;;;;;;;28.77;35.26;101611.75;6227303;22;20597;-67
2022/08/22 12:25:18;;;;;;;7.70;2.47;;;;;;;29.79;34.06;101601.84;6220166;22;20042;-68
2022/08/22 12:28:05;;;;;;;8.38;2.90;;;;;;;30.34;32.58;101600.56;6233379;22;20012;-68
2022/08/22 12:30:56;;;;;;;6.95;2.53;;;;;;;30.52;31.72;101602.22;6234478;22;20486;-66
2022/08/22 12:33:25;;;;;;;8.05;2.60;;;;;;;29.72;33.61;101599.56;6194799;22;20026;-69
2022/08/22 12:36:26;;;;;;;7.13;2.85;;;;;;;30.00;32.81;101599.81;6201211;22;20022;-69